Autaugaville, Alabama
Current Conditions -  °F | °C
As of 11:55 AM on Sunday 21 Dec 2014 (Local Time) from K1A9 Reporting Station
Overcast Overcast  
Wind Chill: 53°   Ceiling: 1200
Heat Index: 53°   Visibility: 10mi
Dew Point: 48°   Wind: 7mph
Humidity: 84%   Direction: 60°ENE
Pressure: 30.11"   Gusts: NA
Location:  32.43°N, 86.65°W
Report Text: K1A9 211755Z AUTO 06006KT 10SM OVC012 11/09 A3011 RMK AO2 T01140087 10114 20097
Loading
Personal Weather Stations






























Interactive Weather Map New forecast layout! Learn more

10-Day Weather Forecast

Advertisements
Track Severe Weather on mobile